createdAt,value
2022-08-26T00:03:06.220Z,24.69
2022-08-26T00:08:09.593Z,24.85
2022-08-26T00:13:14.736Z,24.95
2022-08-26T00:18:22.282Z,24.89
2022-08-26T00:23:24.622Z,24.82
2022-08-26T00:28:28.596Z,24.67
2022-08-26T00:33:30.328Z,24.55
2022-08-26T00:38:31.990Z,24.48
2022-08-26T00:43:47.477Z,24.38
2022-08-26T00:48:53.724Z,24.25
2022-08-26T00:54:07.618Z,24.17
2022-08-26T00:59:13.829Z,24.06
2022-08-26T01:04:19.397Z,24.00
2022-08-26T01:09:22.283Z,23.88
2022-08-26T01:14:26.451Z,23.82
2022-08-26T01:19:37.748Z,23.80
2022-08-26T01:24:42.708Z,23.67
2022-08-26T01:29:46.970Z,23.59
2022-08-26T01:34:51.963Z,23.59
2022-08-26T01:39:57.463Z,23.50
2022-08-26T01:45:16.754Z,23.45
2022-08-26T01:50:28.057Z,23.38
2022-08-26T01:55:34.152Z,23.34
2022-08-26T02:00:37.574Z,23.23
2022-08-26T02:05:39.474Z,23.16
2022-08-26T02:10:41.375Z,23.08
2022-08-26T02:15:44.505Z,23.02
2022-08-26T02:20:46.681Z,22.98
2022-08-26T02:26:06.949Z,22.87
2022-08-26T02:31:08.720Z,22.79
2022-08-26T02:36:13.383Z,22.76
2022-08-26T02:41:15.460Z,22.57
2022-08-26T02:46:21.491Z,22.62
2022-08-26T02:51:31.506Z,22.53
2022-08-26T02:56:35.346Z,22.43
2022-08-26T03:01:37.268Z,22.44
2022-08-26T03:06:39.284Z,22.31
2022-08-26T03:11:43.147Z,22.32
2022-08-26T03:16:45.347Z,22.39
2022-08-26T03:21:50.818Z,22.39
2022-08-26T03:26:54.051Z,22.54
2022-08-26T03:31:55.856Z,22.60
2022-08-26T03:36:57.467Z,22.72
2022-08-26T03:41:59.642Z,22.80
2022-08-26T03:47:01.218Z,22.83
2022-08-26T03:52:04.556Z,22.95
2022-08-26T03:57:07.276Z,22.88
2022-08-26T04:02:11.576Z,23.02
2022-08-26T04:07:13.554Z,22.91
2022-08-26T04:12:16.641Z,22.97
2022-08-26T04:17:19.190Z,23.02
2022-08-26T04:22:26.725Z,23.07
2022-08-26T04:27:30.989Z,23.04
2022-08-26T04:32:32.674Z,23.06
2022-08-26T04:37:35.576Z,23.02
2022-08-26T04:42:37.276Z,23.05
2022-08-26T04:47:38.985Z,23.06
2022-08-26T04:52:40.700Z,23.12
2022-08-26T04:57:42.588Z,23.12
2022-08-26T05:02:44.245Z,23.10
2022-08-26T05:07:45.792Z,23.15
2022-08-26T05:12:47.882Z,23.15
2022-08-26T05:17:49.574Z,23.23
2022-08-26T05:22:51.324Z,23.33
2022-08-26T05:27:53.153Z,23.48
2022-08-26T05:32:55.511Z,23.39
2022-08-26T05:37:58.309Z,23.38
2022-08-26T05:42:59.953Z,23.52
2022-08-26T05:48:01.942Z,23.52
2022-08-26T05:53:03.951Z,23.47
2022-08-26T05:58:06.084Z,23.51
2022-08-26T06:03:08.091Z,23.49
2022-08-26T06:08:10.008Z,23.50
2022-08-26T06:13:12.865Z,23.57
2022-08-26T06:18:17.331Z,23.72
2022-08-26T06:23:19.255Z,23.68
2022-08-26T06:28:20.855Z,23.83
2022-08-26T06:33:23.926Z,23.70
2022-08-26T06:38:25.500Z,23.70
2022-08-26T06:43:28.395Z,23.84
2022-08-26T06:48:30.429Z,23.80
2022-08-26T06:53:32.013Z,23.81
2022-08-26T06:58:35.429Z,24.08
2022-08-26T07:03:39.526Z,24.10
2022-08-26T07:08:41.499Z,24.29
2022-08-26T07:13:43.851Z,24.32
2022-08-26T07:18:46.604Z,24.40
2022-08-26T07:23:48.828Z,24.59
2022-08-26T07:28:53.484Z,24.18
2022-08-26T07:33:55.294Z,24.26
2022-08-26T07:38:57.350Z,24.23
2022-08-26T07:43:59.108Z,24.42
2022-08-26T07:49:00.758Z,24.32
2022-08-26T07:54:02.549Z,24.48
2022-08-26T07:59:13.709Z,24.64
2022-08-26T08:04:17.310Z,24.44
2022-08-26T08:09:19.663Z,24.50
2022-08-26T08:14:23.884Z,24.50
2022-08-26T08:19:36.867Z,24.67
2022-08-26T08:24:40.944Z,24.74
2022-08-26T08:29:43.272Z,24.69
2022-08-26T08:34:44.870Z,24.55
2022-08-26T08:39:46.461Z,24.49
2022-08-26T08:44:55.498Z,24.52
2022-08-26T08:50:11.523Z,24.69
2022-08-26T08:55:18.038Z,24.36
2022-08-26T09:00:20.716Z,24.28
2022-08-26T09:05:37.787Z,24.81
2022-08-26T09:10:44.247Z,24.57
2022-08-26T09:15:58.128Z,24.80
2022-08-26T09:21:06.303Z,25.05
2022-08-26T09:26:24.791Z,25.04
2022-08-26T09:31:34.194Z,24.74
2022-08-26T09:36:46.600Z,24.58
2022-08-26T09:42:03.093Z,24.76
2022-08-26T09:47:07.141Z,24.77
2022-08-26T09:52:23.778Z,25.07
2022-08-26T09:57:29.476Z,25.21
2022-08-26T10:02:34.062Z,25.07
2022-08-26T10:07:38.451Z,25.04
2022-08-26T10:12:49.227Z,25.10
2022-08-26T10:18:14.092Z,24.97
2022-08-26T10:23:19.782Z,25.38
2022-08-26T10:28:49.447Z,25.66
2022-08-26T10:33:52.537Z,25.88
2022-08-26T10:39:01.426Z,25.74
2022-08-26T10:44:07.934Z,25.12
2022-08-26T10:49:14.341Z,25.63
2022-08-26T10:54:39.243Z,25.80
2022-08-26T10:59:56.040Z,25.18
2022-08-26T11:05:01.641Z,25.55
2022-08-26T11:10:11.253Z,26.21
2022-08-26T11:15:24.499Z,25.74
2022-08-26T11:20:41.886Z,25.87
2022-08-26T11:25:56.063Z,26.64
2022-08-26T11:30:58.720Z,28.02
2022-08-26T11:36:00.591Z,27.83
2022-08-26T11:41:20.839Z,27.81
2022-08-26T11:46:28.857Z,28.04
2022-08-26T11:51:30.421Z,27.88
2022-08-26T11:56:35.906Z,27.76
2022-08-26T12:01:44.445Z,27.92
2022-08-26T12:06:50.059Z,27.72
2022-08-26T12:11:52.727Z,27.63
2022-08-26T12:17:13.623Z,26.86
2022-08-26T12:22:22.879Z,26.61
2022-08-26T12:27:27.928Z,26.76
2022-08-26T12:32:30.444Z,26.71
2022-08-26T12:37:35.270Z,26.20
2022-08-26T12:42:42.138Z,25.85
2022-08-26T12:47:45.881Z,25.58
2022-08-26T12:53:05.430Z,25.75
2022-08-26T12:58:16.068Z,25.93
2022-08-26T13:03:36.121Z,25.99
2022-08-26T13:08:58.514Z,26.29
2022-08-26T13:14:18.427Z,26.35
2022-08-26T13:19:25.585Z,26.61
2022-08-26T13:24:42.428Z,26.16
2022-08-26T13:29:43.981Z,25.85
2022-08-26T13:34:51.422Z,26.09
2022-08-26T13:39:53.593Z,26.17
2022-08-26T13:44:55.173Z,26.66
2022-08-26T13:49:56.755Z,26.77
2022-08-26T13:54:59.625Z,27.12
2022-08-26T14:00:01.171Z,26.39
2022-08-26T14:05:02.775Z,26.17
2022-08-26T14:10:04.708Z,26.11
2022-08-26T14:15:07.568Z,26.56
2022-08-26T14:20:14.010Z,26.60
2022-08-26T14:25:15.690Z,26.95
2022-08-26T14:30:17.779Z,26.91
2022-08-26T14:35:22.580Z,26.89
2022-08-26T14:40:29.145Z,26.64
2022-08-26T14:45:31.100Z,27.39
2022-08-26T14:50:32.752Z,26.87
2022-08-26T14:55:38.112Z,26.00
2022-08-26T15:00:39.691Z,26.11
2022-08-26T15:05:46.074Z,26.29
2022-08-26T15:10:49.459Z,26.91
2022-08-26T15:15:51.131Z,27.08
2022-08-26T15:20:52.783Z,26.99
2022-08-26T15:25:54.443Z,26.89
2022-08-26T15:30:56.087Z,27.31
2022-08-26T15:36:02.963Z,27.04
2022-08-26T15:41:06.422Z,26.83
2022-08-26T15:46:11.180Z,26.40
2022-08-26T15:51:28.060Z,26.48
2022-08-26T15:56:32.942Z,26.49
2022-08-26T16:01:36.111Z,26.31
2022-08-26T16:06:39.687Z,26.16
2022-08-26T16:11:41.239Z,25.86
2022-08-26T16:16:42.847Z,25.62
2022-08-26T16:21:45.202Z,25.68
2022-08-26T16:26:46.789Z,25.61
2022-08-26T16:31:48.376Z,25.46
2022-08-26T16:36:50.235Z,25.50
2022-08-26T16:41:51.869Z,25.66
2022-08-26T16:46:58.537Z,25.63
2022-08-26T16:52:00.401Z,25.71
2022-08-26T16:57:02.726Z,25.57
2022-08-26T17:02:04.460Z,25.42
2022-08-26T17:07:06.129Z,25.14
2022-08-26T17:12:07.898Z,25.30
2022-08-26T17:17:09.466Z,25.04
2022-08-26T17:22:11.630Z,24.97
2022-08-26T17:27:13.274Z,24.81
2022-08-26T17:32:14.893Z,24.81
2022-08-26T17:37:18.477Z,24.78
2022-08-26T17:42:20.061Z,24.82
2022-08-26T17:47:21.744Z,24.22
2022-08-26T17:52:23.567Z,24.14
2022-08-26T17:57:26.202Z,24.15
2022-08-26T18:07:32.893Z,23.89
2022-08-26T18:12:41.080Z,23.94
2022-08-26T18:17:43.078Z,23.99
2022-08-26T18:22:46.383Z,23.95
2022-08-26T18:27:47.931Z,23.90
2022-08-26T18:32:50.633Z,23.86
2022-08-26T18:37:52.222Z,23.94
2022-08-26T18:42:54.121Z,23.88
2022-08-26T18:47:55.989Z,23.92
2022-08-26T18:52:57.741Z,24.06
2022-08-26T18:57:59.415Z,23.92
2022-08-26T19:03:01.272Z,23.93
2022-08-26T19:08:04.074Z,24.01
2022-08-26T19:13:07.611Z,23.89
2022-08-26T19:18:11.409Z,23.82
2022-08-26T19:23:30.929Z,23.82
2022-08-26T19:28:34.425Z,23.82
2022-08-26T19:33:37.574Z,23.73
2022-08-26T19:38:39.309Z,23.56
2022-08-26T19:43:41.202Z,23.61
2022-08-26T19:48:43.636Z,23.53
2022-08-26T19:53:46.829Z,23.56
2022-08-26T19:58:49.587Z,23.50
2022-08-26T20:03:51.376Z,23.49
2022-08-26T20:08:53.875Z,23.44
2022-08-26T20:13:56.732Z,23.37
2022-08-26T20:18:58.626Z,23.37
2022-08-26T20:24:05.335Z,23.33
2022-08-26T20:29:08.966Z,23.33
2022-08-26T20:34:12.160Z,23.32
2022-08-26T20:39:15.318Z,23.26
2022-08-26T20:44:17.233Z,23.30
2022-08-26T20:49:19.859Z,23.22
2022-08-26T20:54:28.014Z,23.20
2022-08-26T20:59:30.391Z,23.08
2022-08-26T21:04:32.058Z,23.12
2022-08-26T21:09:33.760Z,23.14
2022-08-26T21:14:35.381Z,23.14
2022-08-26T21:19:37.725Z,23.13
2022-08-26T21:24:39.593Z,23.07
2022-08-26T21:29:41.430Z,23.09
2022-08-26T21:34:43.275Z,23.14
2022-08-26T21:39:45.219Z,23.05
2022-08-26T21:44:52.663Z,22.98
2022-08-26T21:49:54.701Z,23.04
2022-08-26T21:54:58.240Z,23.06
2022-08-26T22:00:00.508Z,22.95
2022-08-26T22:05:07.501Z,22.91
2022-08-26T22:10:09.414Z,22.89
2022-08-26T22:15:12.229Z,22.86
2022-08-26T22:20:16.624Z,22.75
2022-08-26T22:25:19.152Z,22.68
2022-08-26T22:30:20.832Z,22.39
2022-08-26T22:35:28.979Z,22.14
2022-08-26T22:40:31.342Z,21.97
2022-08-26T22:45:33.456Z,21.87
2022-08-26T22:50:35.436Z,21.67
2022-08-26T22:55:37.777Z,21.68
2022-08-26T23:00:40.066Z,21.71
2022-08-26T23:05:44.984Z,21.72
2022-08-26T23:10:48.339Z,21.61
2022-08-26T23:15:59.127Z,21.59
2022-08-26T23:21:01.094Z,21.45
2022-08-26T23:26:06.190Z,21.48
2022-08-26T23:31:08.435Z,21.39
2022-08-26T23:36:12.650Z,21.37
2022-08-26T23:41:17.507Z,21.40
2022-08-26T23:46:19.480Z,21.23
2022-08-26T23:51:21.517Z,21.18
2022-08-26T23:56:23.515Z,21.15
